Time;durP1;ratioP1;P1;durP2;ratioP2;P2;SDS_P1;SDS_P2;PMS_P1;PMS_P2;Temp;Humidity;BMP_temperature;BMP_pressure;BME280_temperature;BME280_humidity;BME280_pressure;Samples;Min_cycle;Max_cycle;Signal;HPM_P1;HPM_P2
2022/03/01 00:01:45;;;;;;;8.80;5.30;;;9.00;73.40;;;;;;5030768;28;20408;-62
2022/03/01 00:04:10;;;;;;;18.50;5.20;;;9.00;73.50;;;;;;5022033;28;20018;-62
2022/03/01 00:06:36;;;;;;;12.52;5.80;;;9.00;73.40;;;;;;5030572;28;20529;-62
2022/03/01 00:09:02;;;;;;;12.45;5.60;;;9.00;73.70;;;;;;5029402;28;20026;-63
2022/03/01 00:11:28;;;;;;;15.88;5.80;;;9.00;73.80;;;;;;5012846;28;20029;-61
2022/03/01 00:13:54;;;;;;;12.75;5.47;;;9.00;73.70;;;;;;5030956;28;20044;-62
2022/03/01 00:16:20;;;;;;;11.43;4.50;;;8.90;74.80;;;;;;5018124;28;20029;-62
2022/03/01 00:18:47;;;;;;;14.02;5.47;;;9.00;73.90;;;;;;5012990;28;20036;-62
2022/03/01 00:21:15;;;;;;;14.07;4.97;;;8.90;73.90;;;;;;5029632;28;20048;-62
2022/03/01 02:39:19;;;;;;;9.18;4.57;;;8.80;76.20;;;;;;5047582;28;20446;-61
2022/03/01 02:42:07;;;;;;;14.10;5.07;;;8.90;76.00;;;;;;5014205;28;20493;-62
2022/03/01 03:25:52;;;;;;;16.13;6.15;;;8.80;76.50;;;;;;5051406;28;20112;-61
2022/03/01 03:59:43;;;;;;;12.95;5.32;;;8.80;76.50;;;;;;5075010;28;20028;-62
2022/03/01 04:32:47;;;;;;;17.83;5.78;;;8.60;76.20;;;;;;4992757;28;20049;-61
2022/03/01 04:52:26;;;;;;;12.80;4.57;;;8.70;75.80;;;;;;5021202;28;20052;-62
2022/03/01 05:08:08;;;;;;;15.10;4.97;;;8.70;75.80;;;;;;5026762;28;20595;-61
2022/03/01 05:10:36;;;;;;;11.75;4.80;;;8.70;75.60;;;;;;5007716;28;20041;-61
2022/03/01 05:13:22;;;;;;;18.30;5.68;;;8.70;75.80;;;;;;4988316;28;20410;-61
2022/03/01 05:15:48;;;;;;;13.15;5.30;;;8.70;75.90;;;;;;5003374;28;20026;-61
2022/03/01 05:18:13;;;;;;;14.43;5.60;;;8.70;76.10;;;;;;5007387;28;20052;-60
2022/03/01 05:20:39;;;;;;;19.08;5.25;;;8.60;76.30;;;;;;5000171;28;20428;-60
2022/03/01 05:23:05;;;;;;;16.58;6.05;;;8.60;76.20;;;;;;5004175;28;20072;-60
2022/03/01 05:25:31;;;;;;;10.77;4.88;;;8.60;76.00;;;;;;5007444;28;20037;-60
2022/03/01 05:27:58;;;;;;;10.32;4.68;;;8.60;76.00;;;;;;5001777;28;20096;-61
2022/03/01 05:30:24;;;;;;;13.77;5.82;;;8.60;75.70;;;;;;5007435;28;20033;-60
2022/03/01 05:32:51;;;;;;;10.35;4.78;;;8.70;75.50;;;;;;5004273;28;20042;-61
2022/03/01 05:35:19;;;;;;;12.65;4.95;;;8.70;75.60;;;;;;5003014;28;20403;-61
2022/03/01 05:37:52;;;;;;;12.20;5.55;;;8.70;75.60;;;;;;5014133;28;20043;-60
2022/03/01 05:40:18;;;;;;;13.23;5.22;;;8.70;75.40;;;;;;5034887;28;20036;-61
2022/03/01 05:42:44;;;;;;;15.27;6.03;;;8.80;75.20;;;;;;5040385;28;20032;-61
2022/03/01 05:45:11;;;;;;;10.43;3.95;;;8.80;75.10;;;;;;5042737;28;20140;-61
2022/03/01 05:47:37;;;;;;;11.45;4.82;;;8.70;75.30;;;;;;5015622;28;20513;-60
2022/03/01 05:50:04;;;;;;;10.30;5.55;;;8.70;75.40;;;;;;5042885;28;20017;-60
2022/03/01 05:52:32;;;;;;;12.27;4.90;;;8.70;75.40;;;;;;5043212;28;20131;-60
2022/03/01 05:54:58;;;;;;;11.45;4.75;;;8.70;75.10;;;;;;5041510;28;20087;-61
2022/03/01 05:57:28;;;;;;;12.60;4.93;;;8.70;75.10;;;;;;5019372;28;20033;-60
2022/03/01 05:59:59;;;;;;;10.45;4.40;;;8.60;75.20;;;;;;5019410;28;20121;-61
2022/03/01 06:02:27;;;;;;;14.43;5.20;;;8.70;75.20;;;;;;5025506;28;20049;-60
2022/03/01 06:04:53;;;;;;;15.13;4.55;;;8.60;75.30;;;;;;5036619;28;20029;-61
2022/03/01 06:07:19;;;;;;;15.73;5.53;;;8.60;75.30;;;;;;5037384;28;20037;-60
2022/03/01 06:09:45;;;;;;;9.07;4.85;;;8.60;75.10;;;;;;5058700;28;20033;-61
2022/03/01 06:12:11;;;;;;;14.88;5.00;;;8.70;75.20;;;;;;5069474;28;20036;-61
2022/03/01 06:14:37;;;;;;;16.35;5.47;;;8.70;75.20;;;;;;5067997;28;20024;-60
2022/03/01 06:17:03;;;;;;;14.45;5.38;;;8.70;75.10;;;;;;5064549;28;20017;-61
2022/03/01 06:19:29;;;;;;;14.50;5.50;;;8.60;75.20;;;;;;5037993;28;20390;-61
2022/03/01 06:22:04;;;;;;;11.63;5.80;;;8.60;75.30;;;;;;5062607;28;20036;-61
2022/03/01 06:24:44;;;;;;;15.65;5.57;;;8.70;75.00;;;;;;5067004;28;20020;-61
2022/03/01 06:27:11;;;;;;;12.30;5.47;;;8.70;74.30;;;;;;5041142;28;20279;-61
2022/03/01 06:29:37;;;;;;;10.10;5.30;;;8.70;74.30;;;;;;5052271;28;20028;-61
2022/03/01 06:32:04;;;;;;;15.68;6.70;;;8.70;74.50;;;;;;5036700;28;20034;-61
2022/03/01 06:34:36;;;;;;;10.48;4.72;;;8.70;74.30;;;;;;5038298;28;20026;-61
2022/03/01 06:37:02;;;;;;;9.13;4.40;;;8.60;74.40;;;;;;5044599;28;20021;-61
2022/03/01 06:39:28;;;;;;;10.98;4.55;;;8.60;74.40;;;;;;5053612;28;20036;-61
2022/03/01 06:41:54;;;;;;;9.13;4.53;;;8.50;74.70;;;;;;5043884;28;20049;-61
2022/03/01 06:44:19;;;;;;;9.52;4.10;;;8.60;74.70;;;;;;5060475;28;20029;-61
2022/03/01 06:46:45;;;;;;;18.08;5.20;;;8.60;74.70;;;;;;5060608;28;20040;-61
2022/03/01 06:49:11;;;;;;;11.48;4.55;;;8.70;74.50;;;;;;5051085;28;20025;-60
2022/03/01 06:51:39;;;;;;;15.50;5.53;;;8.80;74.50;;;;;;5060118;28;20025;-61
2022/03/01 06:54:07;;;;;;;10.05;5.32;;;8.70;74.60;;;;;;5056647;28;20021;-61
2022/03/01 06:56:33;;;;;;;10.68;4.97;;;8.70;74.90;;;;;;5042412;28;20024;-61
2022/03/01 06:58:58;;;;;;;10.07;5.25;;;8.70;74.80;;;;;;5062080;28;20326;-61
2022/03/01 07:01:24;;;;;;;12.48;5.18;;;8.70;75.00;;;;;;5066560;28;20492;-66
2022/03/01 07:03:50;;;;;;;10.18;4.55;;;8.40;65.40;;;;;;5066477;28;20062;-66
2022/03/01 07:06:16;;;;;;;13.20;5.05;;;8.40;71.10;;;;;;5044887;28;20112;-66
2022/03/01 07:08:42;;;;;;;9.57;4.88;;;8.40;71.40;;;;;;5054439;28;20032;-66
2022/03/01 07:11:07;;;;;;;11.27;5.22;;;8.50;71.60;;;;;;5067383;28;20042;-66
2022/03/01 07:13:36;;;;;;;8.50;4.07;;;8.50;71.40;;;;;;5039049;28;20029;-67
2022/03/01 07:16:06;;;;;;;13.48;5.25;;;8.50;71.00;;;;;;5056470;28;20032;-66
2022/03/01 07:18:32;;;;;;;11.90;4.95;;;8.50;70.90;;;;;;5047624;28;20532;-66
2022/03/01 07:20:57;;;;;;;9.45;4.25;;;8.50;70.90;;;;;;5062693;28;20024;-66
2022/03/01 07:23:23;;;;;;;10.43;4.75;;;8.60;70.80;;;;;;5055828;28;20035;-66
2022/03/01 07:25:48;;;;;;;16.90;4.88;;;8.60;70.30;;;;;;5037438;28;20094;-67
2022/03/01 07:28:14;;;;;;;10.38;5.32;;;8.50;70.20;;;;;;5054140;28;20068;-67
2022/03/01 07:30:39;;;;;;;12.57;5.25;;;8.50;70.00;;;;;;5034397;28;20029;-68
2022/03/01 07:33:05;;;;;;;19.35;4.50;;;8.60;69.50;;;;;;5048680;28;20072;-66
2022/03/01 07:35:31;;;;;;;14.23;4.97;;;8.60;68.90;;;;;;5061814;28;20027;-67
2022/03/01 07:37:57;;;;;;;8.07;4.20;;;8.60;68.20;;;;;;5062136;28;20536;-67
2022/03/01 07:40:25;;;;;;;8.48;3.80;;;8.70;68.30;;;;;;5060454;28;20100;-66
2022/03/01 07:42:52;;;;;;;8.05;4.10;;;8.70;67.80;;;;;;5060267;28;20044;-66
2022/03/01 07:45:18;;;;;;;9.88;4.35;;;8.80;68.50;;;;;;5061275;28;20094;-67
2022/03/01 07:47:44;;;;;;;8.45;4.32;;;8.80;67.50;;;;;;5061806;28;20033;-67
2022/03/01 07:50:09;;;;;;;18.15;5.28;;;8.80;67.30;;;;;;5058964;28;20385;-66
2022/03/01 07:52:35;;;;;;;10.27;4.50;;;8.80;66.90;;;;;;5044269;28;20389;-67
2022/03/01 07:55:01;;;;;;;10.50;4.90;;;8.80;66.30;;;;;;5059390;28;20033;-67
2022/03/01 07:57:27;;;;;;;10.20;4.40;;;8.80;66.90;;;;;;5055291;28;20036;-67
2022/03/01 07:59:52;;;;;;;13.30;5.22;;;8.80;66.70;;;;;;5067612;28;20053;-67
2022/03/01 08:02:18;;;;;;;12.35;4.35;;;8.80;66.20;;;;;;5055888;28;20071;-66
2022/03/01 08:04:44;;;;;;;15.23;5.25;;;8.80;66.60;;;;;;5060430;28;20025;-68
2022/03/01 08:07:10;;;;;;;11.55;5.47;;;8.80;66.20;;;;;;5058971;28;20119;-67
2022/03/01 08:09:40;;;;;;;11.75;4.85;;;8.80;65.80;;;;;;5058855;28;20140;-69
2022/03/01 08:12:07;;;;;;;11.13;4.53;;;8.80;65.10;;;;;;5061508;28;20036;-67
2022/03/01 08:14:34;;;;;;;11.50;5.10;;;8.80;66.10;;;;;;5059854;28;20047;-67
2022/03/01 08:17:01;;;;;;;13.65;6.25;;;8.80;63.00;;;;;;5055376;28;20025;-66
2022/03/01 08:19:26;;;;;;;17.00;6.80;;;8.80;64.90;;;;;;5043239;28;20500;-67
2022/03/01 08:21:52;;;;;;;11.25;4.82;;;8.80;63.50;;;;;;5061664;28;20037;-66
2022/03/01 08:24:18;;;;;;;11.85;5.95;;;8.80;64.30;;;;;;5062144;28;20270;-68
2022/03/01 08:26:43;;;;;;;11.30;4.88;;;8.90;64.80;;;;;;5061222;28;20029;-66
2022/03/01 08:29:09;;;;;;;12.40;6.43;;;8.90;65.70;;;;;;5058966;28;20225;-67
2022/03/01 08:31:39;;;;;;;12.20;6.65;;;8.90;66.00;;;;;;5048362;28;20373;-67
2022/03/01 08:34:05;;;;;;;14.55;6.00;;;8.90;65.50;;;;;;5066506;28;20028;-66
2022/03/01 08:36:30;;;;;;;14.13;6.60;;;8.90;64.80;;;;;;5058223;28;20104;-67
2022/03/01 08:38:56;;;;;;;13.73;6.20;;;8.90;64.60;;;;;;5047648;28;20052;-67
2022/03/01 08:41:22;;;;;;;14.52;6.18;;;8.90;63.30;;;;;;5033268;28;20036;-67
2022/03/01 08:43:47;;;;;;;15.10;6.05;;;8.80;63.60;;;;;;5060867;28;20033;-66
2022/03/01 08:46:14;;;;;;;12.32;5.55;;;8.80;63.80;;;;;;5063216;28;20103;-66
2022/03/01 08:48:40;;;;;;;10.00;5.72;;;8.90;66.00;;;;;;5062227;28;20481;-66
2022/03/01 08:51:06;;;;;;;16.30;7.47;;;8.90;65.20;;;;;;5056581;28;20028;-67
2022/03/01 08:53:32;;;;;;;19.23;6.00;;;8.90;64.20;;;;;;5056802;28;20210;-66
2022/03/01 08:55:59;;;;;;;9.23;4.93;;;8.90;65.10;;;;;;5060252;28;20028;-67
2022/03/01 08:58:25;;;;;;;12.98;6.00;;;9.00;66.30;;;;;;5042531;28;20026;-67
2022/03/01 09:00:52;;;;;;;17.88;7.30;;;9.00;63.60;;;;;;5062008;28;20040;-67
2022/03/01 09:03:18;;;;;;;10.68;5.78;;;8.90;64.90;;;;;;5058474;28;20447;-67
2022/03/01 09:05:44;;;;;;;16.40;7.30;;;8.90;65.10;;;;;;5055813;28;20036;-67
2022/03/01 09:08:12;;;;;;;22.10;6.25;;;8.90;65.70;;;;;;5058047;28;20496;-67
2022/03/01 09:10:41;;;;;;;16.23;6.47;;;8.90;64.80;;;;;;5052315;28;20028;-65
2022/03/01 09:13:07;;;;;;;20.85;7.85;;;9.00;65.80;;;;;;5050064;28;20029;-66
2022/03/01 09:15:33;;;;;;;24.02;9.63;;;9.00;66.30;;;;;;5043435;28;20056;-67
2022/03/01 09:18:05;;;;;;;27.23;10.25;;;9.00;66.30;;;;;;5063615;28;20054;-66
2022/03/01 09:20:32;;;;;;;16.00;6.28;;;9.00;66.10;;;;;;5056863;28;20024;-66
2022/03/01 09:22:59;;;;;;;18.25;6.55;;;9.00;66.90;;;;;;5056559;28;20036;-67
2022/03/01 09:25:25;;;;;;;13.88;5.93;;;9.00;65.00;;;;;;5057402;28;20029;-67
2022/03/01 09:27:51;;;;;;;15.00;5.57;;;9.10;63.30;;;;;;5060800;28;20056;-66
2022/03/01 09:30:17;;;;;;;15.48;7.07;;;9.10;63.80;;;;;;5060626;28;20069;-66
2022/03/01 09:32:43;;;;;;;17.80;5.55;;;9.10;64.10;;;;;;5060472;28;20025;-66
2022/03/01 09:35:10;;;;;;;11.68;6.47;;;9.10;64.90;;;;;;5042795;28;20029;-66
2022/03/01 09:37:36;;;;;;;11.82;6.43;;;9.10;64.20;;;;;;5060173;28;20025;-66
2022/03/01 09:40:04;;;;;;;18.77;7.15;;;9.10;62.80;;;;;;5057393;28;20025;-66
2022/03/01 09:42:31;;;;;;;12.35;5.18;;;9.10;63.70;;;;;;5058551;28;20059;-67
2022/03/01 09:44:58;;;;;;;16.52;7.20;;;9.10;65.30;;;;;;5061957;28;20078;-66
2022/03/01 09:47:24;;;;;;;16.63;6.60;;;9.20;64.30;;;;;;5052741;28;20032;-66
2022/03/01 09:49:50;;;;;;;11.18;4.93;;;9.10;64.50;;;;;;5050047;28;20044;-67
2022/03/01 09:52:15;;;;;;;14.48;5.55;;;9.10;65.30;;;;;;5038725;28;20072;-66
2022/03/01 09:54:41;;;;;;;7.00;3.65;;;9.20;66.20;;;;;;5057320;28;20024;-67
2022/03/01 09:57:07;;;;;;;11.82;5.93;;;9.10;62.90;;;;;;5048586;28;20079;-66
2022/03/01 09:59:33;;;;;;;10.35;5.00;;;9.10;62.80;;;;;;5052611;28;20369;-66
2022/03/01 10:01:59;;;;;;;17.35;6.22;;;9.10;62.50;;;;;;5052436;28;20037;-67
2022/03/01 10:04:25;;;;;;;12.98;4.78;;;9.10;64.30;;;;;;5054308;28;20352;-66
2022/03/01 10:06:51;;;;;;;15.48;5.45;;;9.20;64.80;;;;;;5044357;28;20119;-66
2022/03/01 10:09:26;;;;;;;11.32;5.53;;;9.30;62.90;;;;;;5033932;28;20033;-66
2022/03/01 10:11:53;;;;;;;14.10;5.28;;;9.30;64.70;;;;;;5055781;28;20021;-67
2022/03/01 10:14:28;;;;;;;9.77;2.97;;;9.30;65.20;;;;;;5060171;28;20020;-66
2022/03/01 10:16:54;;;;;;;5.28;1.88;;;9.30;61.60;;;;;;5059532;28;20036;-66
2022/03/01 10:19:21;;;;;;;17.75;7.00;;;9.30;63.00;;;;;;5063311;28;20032;-66
2022/03/01 10:22:00;;;;;;;20.05;5.45;;;9.30;62.00;;;;;;5054251;28;20032;-67
2022/03/01 10:24:26;;;;;;;12.00;5.50;;;9.30;62.80;;;;;;5061003;28;20422;-67
2022/03/01 10:27:01;;;;;;;12.80;4.55;;;9.40;64.30;;;;;;5065231;28;20064;-67
2022/03/01 10:29:28;;;;;;;10.65;4.90;;;9.50;64.10;;;;;;5062695;28;20116;-66
2022/03/01 10:31:59;;;;;;;14.80;6.07;;;9.50;65.70;;;;;;5059117;28;20021;-68
2022/03/01 10:34:26;;;;;;;13.55;5.30;;;9.50;63.40;;;;;;5060006;28;20047;-66
2022/03/01 10:36:52;;;;;;;11.18;4.78;;;9.50;63.10;;;;;;5064344;28;20032;-66
2022/03/01 10:39:26;;;;;;;6.00;2.42;;;9.50;63.40;;;;;;5064956;28;20029;-66
2022/03/01 10:41:52;;;;;;;11.70;4.38;;;9.50;62.20;;;;;;5059036;28;20040;-67
2022/03/01 10:44:21;;;;;;;11.55;5.45;;;9.60;61.40;;;;;;5057319;28;20025;-67
2022/03/01 10:46:59;;;;;;;10.18;4.57;;;9.60;63.20;;;;;;5052528;28;20033;-66
2022/03/01 10:49:31;;;;;;;1.45;1.35;;;9.70;63.20;;;;;;5062190;28;20034;-66
2022/03/01 10:52:06;;;;;;;11.32;4.35;;;9.70;61.40;;;;;;5060593;28;20054;-67
2022/03/01 10:54:40;;;;;;;7.60;4.32;;;9.80;63.30;;;;;;5062909;28;20020;-66
2022/03/01 10:57:21;;;;;;;8.20;3.97;;;9.80;62.50;;;;;;5054800;28;20338;-67
2022/03/01 10:59:48;;;;;;;13.98;4.95;;;9.80;61.00;;;;;;5050357;28;20136;-66
2022/03/01 11:02:16;;;;;;;16.63;6.38;;;9.80;61.80;;;;;;5060757;28;20025;-67
2022/03/01 11:04:42;;;;;;;9.93;5.15;;;10.00;60.90;;;;;;5062395;28;20032;-66
2022/03/01 11:07:10;;;;;;;10.43;4.95;;;10.10;61.60;;;;;;5062097;28;20028;-67
2022/03/01 11:09:36;;;;;;;8.35;4.65;;;10.10;60.00;;;;;;5060651;28;20078;-66
2022/03/01 11:12:05;;;;;;;0.95;0.73;;;10.10;60.40;;;;;;5062038;28;20024;-66
2022/03/01 11:14:44;;;;;;;14.98;5.65;;;10.00;58.40;;;;;;5057778;28;20028;-66
2022/03/01 11:17:43;;;;;;;12.93;5.35;;;10.10;59.20;;;;;;5058524;28;20056;-67
2022/03/01 11:20:18;;;;;;;0.70;0.60;;;10.10;61.00;;;;;;5060237;28;20111;-67
2022/03/01 11:22:53;;;;;;;9.30;5.10;;;10.10;58.20;;;;;;5058865;28;20435;-67
2022/03/01 11:25:24;;;;;;;7.72;3.10;;;10.20;58.30;;;;;;5048916;28;20028;-67
2022/03/01 11:27:52;;;;;;;5.57;3.00;;;10.20;57.30;;;;;;5060209;28;20029;-67
2022/03/01 11:30:28;;;;;;;6.40;3.47;;;10.20;57.00;;;;;;5055439;28;20381;-66
2022/03/01 11:32:56;;;;;;;11.70;5.50;;;10.20;56.80;;;;;;5039291;28;20102;-67
2022/03/01 11:35:24;;;;;;;1.60;1.15;;;10.30;59.60;;;;;;5047062;28;20442;-67
2022/03/01 11:38:12;;;;;;;8.43;4.10;;;10.40;56.90;;;;;;5062261;28;20028;-66
2022/03/01 11:40:45;;;;;;;16.33;5.45;;;10.40;57.00;;;;;;5065005;28;20029;-67
2022/03/01 11:43:17;;;;;;;16.08;5.07;;;10.40;57.20;;;;;;5060601;28;20125;-67
2022/03/01 11:45:49;;;;;;;12.63;5.10;;;10.50;58.00;;;;;;5063972;28;20431;-67
2022/03/01 11:48:20;;;;;;;7.63;3.72;;;10.60;59.00;;;;;;5019769;28;20029;-66
2022/03/01 11:50:58;;;;;;;10.90;5.20;;;10.60;57.30;;;;;;5051385;28;20021;-67
2022/03/01 11:53:26;;;;;;;5.10;2.78;;;10.70;59.10;;;;;;5035648;28;20433;-66
2022/03/01 11:55:55;;;;;;;10.63;3.78;;;10.70;57.90;;;;;;5030868;28;20049;-67
2022/03/01 11:58:22;;;;;;;13.43;4.70;;;10.70;55.40;;;;;;5031173;28;20108;-67
2022/03/01 12:03:35;;;;;;;9.88;4.72;;;10.70;57.40;;;;;;5077238;23;20049;-65
2022/03/01 12:06:03;;;;;;;9.38;4.60;;;10.80;58.70;;;;;;5056805;28;20417;-66
2022/03/01 12:08:29;;;;;;;9.90;5.22;;;10.80;59.20;;;;;;5059194;28;20029;-64
2022/03/01 12:10:58;;;;;;;13.00;4.18;;;10.90;59.10;;;;;;5058873;28;20488;-65
2022/03/01 12:13:39;;;;;;;9.98;4.15;;;10.90;57.90;;;;;;5060699;28;20428;-65
2022/03/01 12:16:06;;;;;;;12.43;5.35;;;10.90;57.60;;;;;;5066827;28;20359;-64
2022/03/01 12:18:37;;;;;;;16.05;5.18;;;11.00;58.40;;;;;;5056370;28;20467;-64
2022/03/01 12:21:08;;;;;;;11.40;4.60;;;11.00;57.20;;;;;;5060964;28;20021;-64
2022/03/01 12:23:37;;;;;;;11.40;5.20;;;11.00;56.70;;;;;;5058700;28;20133;-65
2022/03/01 12:26:05;;;;;;;11.80;5.00;;;11.00;57.90;;;;;;5057983;28;20036;-64
2022/03/01 12:28:58;;;;;;;11.45;5.97;;;11.00;57.90;;;;;;5060639;28;20025;-66
2022/03/01 12:31:29;;;;;;;9.93;3.65;;;11.00;59.20;;;;;;5058130;28;20039;-63
2022/03/01 12:34:01;;;;;;;;;;;11.00;57.90;;;;;;5058123;28;20065;-65
2022/03/01 12:36:34;;;;;;;10.18;4.32;;;11.00;57.90;;;;;;5060397;28;20421;-65
2022/03/01 12:39:08;;;;;;;13.00;5.63;;;11.10;58.20;;;;;;5061004;28;20501;-64
2022/03/01 12:41:35;;;;;;;9.77;4.70;;;11.00;57.90;;;;;;5062667;28;20110;-65
2022/03/01 12:44:04;;;;;;;9.57;4.18;;;11.00;58.70;;;;;;5057850;28;20087;-65
2022/03/01 12:46:32;;;;;;;9.05;3.30;;;11.10;59.20;;;;;;5058115;28;20029;-65
2022/03/01 12:48:58;;;;;;;7.28;3.20;;;11.10;57.50;;;;;;5060926;28;20033;-66
2022/03/01 12:51:25;;;;;;;10.00;4.97;;;11.20;56.30;;;;;;5060061;28;20411;-65
2022/03/01 12:53:59;;;;;;;3.30;2.30;;;11.20;57.10;;;;;;5057772;28;20115;-65
2022/03/01 12:56:35;;;;;;;11.90;5.22;;;11.30;55.00;;;;;;5057668;28;20029;-65
2022/03/01 12:59:13;;;;;;;9.10;4.80;;;11.40;57.00;;;;;;5064878;28;20028;-64
2022/03/01 13:01:46;;;;;;;11.30;4.55;;;11.50;57.20;;;;;;5060214;28;20036;-65
2022/03/01 13:04:13;;;;;;;10.70;5.15;;;11.60;58.10;;;;;;5061587;28;20032;-65
2022/03/01 13:06:40;;;;;;;13.90;4.43;;;11.60;56.50;;;;;;5059722;28;20020;-65
2022/03/01 13:09:06;;;;;;;1.08;1.08;;;11.50;56.40;;;;;;5061116;28;20113;-65
2022/03/01 13:11:32;;;;;;;9.35;4.43;;;11.50;53.80;;;;;;5061085;28;20111;-65
2022/03/01 13:14:04;;;;;;;5.90;2.15;;;11.40;53.70;;;;;;5059524;28;20028;-65
2022/03/01 13:16:33;;;;;;;5.72;3.00;;;11.40;53.60;;;;;;5057883;28;20119;-66
2022/03/01 13:19:04;;;;;;;10.77;3.78;;;11.30;53.10;;;;;;5059429;28;20060;-67
2022/03/01 13:21:35;;;;;;;9.13;4.97;;;11.30;54.30;;;;;;5057450;28;20150;-65
2022/03/01 13:24:09;;;;;;;5.75;3.22;;;11.30;52.80;;;;;;5068446;28;20100;-65
2022/03/01 13:26:35;;;;;;;9.18;4.20;;;11.30;52.90;;;;;;5060619;28;20024;-65
2022/03/01 13:29:17;;;;;;;4.80;2.83;;;11.20;54.20;;;;;;5063965;28;20042;-65
2022/03/01 13:31:44;;;;;;;11.75;4.40;;;11.20;54.40;;;;;;5060237;28;20024;-65
2022/03/01 13:34:11;;;;;;;7.78;3.92;;;11.10;52.80;;;;;;5059744;28;20051;-64
2022/03/01 13:36:39;;;;;;;10.57;4.97;;;11.10;54.90;;;;;;5059580;28;20025;-66
2022/03/01 13:39:14;;;;;;;12.15;4.78;;;11.00;56.60;;;;;;5057844;28;20032;-64
2022/03/01 13:41:46;;;;;;;7.97;3.97;;;11.00;57.10;;;;;;5053295;28;20413;-66
2022/03/01 13:44:14;;;;;;;11.70;5.28;;;11.00;57.60;;;;;;5059778;28;20432;-64
2022/03/01 13:46:52;;;;;;;9.30;4.35;;;11.00;58.40;;;;;;5062874;28;20481;-67
2022/03/01 13:49:31;;;;;;;10.30;3.97;;;11.00;57.40;;;;;;5055455;28;20020;-65
2022/03/01 13:52:24;;;;;;;10.88;4.30;;;11.10;57.60;;;;;;5066275;28;20509;-65
2022/03/01 13:55:04;;;;;;;7.28;3.63;;;11.10;58.90;;;;;;5051371;28;20028;-66
2022/03/01 13:57:44;;;;;;;11.68;5.55;;;11.00;58.90;;;;;;5057680;28;20102;-64
2022/03/01 14:00:22;;;;;;;10.32;4.50;;;11.00;59.10;;;;;;5052711;28;20037;-65
2022/03/01 14:02:59;;;;;;;7.45;4.40;;;10.90;59.00;;;;;;5065851;28;20029;-64
2022/03/01 14:05:27;;;;;;;12.07;4.60;;;10.90;59.10;;;;;;5056511;28;20021;-66
2022/03/01 14:08:05;;;;;;;10.35;4.30;;;10.90;59.30;;;;;;5056917;28;20021;-64
2022/03/01 14:10:33;;;;;;;12.45;4.53;;;10.80;59.10;;;;;;5060543;28;20032;-64
2022/03/01 14:13:07;;;;;;;16.67;5.90;;;10.80;58.90;;;;;;5057957;28;20396;-65
2022/03/01 14:15:39;;;;;;;14.90;4.18;;;10.80;58.70;;;;;;5058895;28;20090;-65
2022/03/01 14:18:05;;;;;;;12.45;5.68;;;10.80;58.60;;;;;;5061829;28;20032;-65
2022/03/01 14:20:31;;;;;;;12.38;5.22;;;10.90;59.10;;;;;;5060031;28;20036;-63
2022/03/01 14:22:57;;;;;;;10.20;5.38;;;10.80;58.50;;;;;;5057088;28;20032;-65
2022/03/01 14:25:23;;;;;;;8.38;4.00;;;10.80;58.20;;;;;;5059770;28;20481;-63
2022/03/01 14:27:49;;;;;;;9.40;4.13;;;10.70;57.80;;;;;;5051303;28;20394;-63
2022/03/01 14:30:14;;;;;;;7.55;3.80;;;10.70;59.60;;;;;;5059642;28;20020;-61
2022/03/01 14:32:41;;;;;;;13.00;5.40;;;10.70;61.20;;;;;;5056931;28;20032;-63
2022/03/01 14:35:07;;;;;;;10.32;4.10;;;10.60;60.30;;;;;;5057008;28;20108;-63
2022/03/01 14:37:32;;;;;;;12.27;4.15;;;10.50;59.60;;;;;;5059403;28;20108;-62
2022/03/01 14:39:58;;;;;;;9.20;5.00;;;10.50;61.70;;;;;;5057786;28;20108;-62
2022/03/01 14:42:24;;;;;;;10.65;4.05;;;10.50;62.60;;;;;;5055361;28;20041;-62
2022/03/01 14:44:49;;;;;;;8.25;4.15;;;10.50;63.00;;;;;;5065399;28;20021;-63
2022/03/01 14:47:15;;;;;;;10.13;4.18;;;10.50;62.80;;;;;;5062594;28;20365;-62
2022/03/01 14:49:41;;;;;;;11.05;4.28;;;10.40;62.60;;;;;;5060393;28;20504;-64
2022/03/01 14:52:09;;;;;;;9.10;3.72;;;10.40;62.50;;;;;;5060750;28;20029;-62
2022/03/01 14:54:34;;;;;;;7.30;4.00;;;10.40;60.90;;;;;;5063606;28;20058;-62
2022/03/01 14:57:00;;;;;;;7.32;4.10;;;10.40;62.50;;;;;;5064198;28;20107;-63
2022/03/01 14:59:26;;;;;;;9.63;4.07;;;10.30;62.90;;;;;;5060650;28;20036;-63
2022/03/01 15:01:51;;;;;;;10.90;4.63;;;10.30;63.00;;;;;;5061684;28;20029;-64
2022/03/01 15:04:17;;;;;;;11.55;5.32;;;10.20;62.60;;;;;;5057654;28;20037;-65
2022/03/01 15:06:43;;;;;;;8.50;3.85;;;10.20;63.10;;;;;;5064428;28;20020;-60
2022/03/01 15:09:08;;;;;;;9.57;4.55;;;10.20;60.80;;;;;;5058447;28;20401;-60
2022/03/01 15:11:35;;;;;;;8.63;4.60;;;10.10;61.20;;;;;;5063417;28;20037;-60
2022/03/01 15:14:02;;;;;;;12.27;4.28;;;10.10;62.90;;;;;;5063828;28;20033;-60
2022/03/01 15:16:28;;;;;;;7.45;4.30;;;10.10;61.10;;;;;;5059500;28;20036;-60
2022/03/01 15:18:56;;;;;;;13.63;5.30;;;10.20;61.70;;;;;;5058971;28;20063;-60
2022/03/01 15:21:22;;;;;;;10.25;3.97;;;10.20;62.50;;;;;;5056622;28;20296;-60
2022/03/01 15:23:47;;;;;;;14.35;5.00;;;10.20;61.90;;;;;;5067902;28;20028;-60
2022/03/01 15:26:13;;;;;;;10.65;4.35;;;10.20;62.70;;;;;;5058309;28;20020;-60
2022/03/01 15:28:39;;;;;;;11.80;5.30;;;10.20;62.60;;;;;;5059361;28;20118;-60
2022/03/01 15:31:05;;;;;;;10.10;5.40;;;10.20;63.20;;;;;;5060664;28;20028;-60
2022/03/01 15:33:30;;;;;;;11.38;4.95;;;10.20;63.30;;;;;;5065052;28;20040;-61
2022/03/01 15:35:56;;;;;;;14.20;4.03;;;10.10;63.70;;;;;;5066926;28;20029;-60
2022/03/01 15:38:22;;;;;;;8.35;4.00;;;10.10;64.10;;;;;;5060213;28;20071;-60
2022/03/01 15:40:47;;;;;;;9.52;4.32;;;10.10;64.10;;;;;;5062452;28;20031;-60
2022/03/01 15:43:13;;;;;;;9.60;4.47;;;10.10;64.40;;;;;;5059369;28;20033;-60
2022/03/01 15:45:39;;;;;;;9.93;4.95;;;10.10;65.50;;;;;;5063456;28;20013;-61
2022/03/01 15:48:05;;;;;;;11.57;4.65;;;10.10;65.20;;;;;;5063008;28;20441;-61
2022/03/01 15:50:31;;;;;;;7.47;4.10;;;10.10;65.10;;;;;;5064885;28;20024;-60
2022/03/01 15:52:57;;;;;;;6.25;3.65;;;10.10;65.50;;;;;;5060225;28;20551;-60
2022/03/01 15:55:24;;;;;;;10.38;4.45;;;10.10;65.60;;;;;;5054641;28;20024;-60
2022/03/01 15:57:50;;;;;;;9.73;4.00;;;10.10;65.70;;;;;;5063076;28;20056;-60
2022/03/01 16:00:18;;;;;;;7.22;3.88;;;10.10;65.90;;;;;;5063134;28;20100;-60
2022/03/01 16:02:44;;;;;;;7.68;4.05;;;10.10;65.90;;;;;;5058053;28;20037;-61
2022/03/01 16:05:10;;;;;;;8.27;4.38;;;10.10;66.40;;;;;;5060363;28;20033;-61
2022/03/01 16:07:36;;;;;;;10.82;4.57;;;10.10;66.30;;;;;;5061876;28;20048;-60
2022/03/01 16:10:03;;;;;;;8.52;3.95;;;10.10;66.60;;;;;;5059612;28;20529;-60
2022/03/01 16:12:30;;;;;;;8.57;4.18;;;10.00;66.60;;;;;;5055756;28;20096;-60
2022/03/01 16:14:57;;;;;;;7.97;4.43;;;10.10;66.50;;;;;;5066446;28;20060;-60
2022/03/01 16:17:23;;;;;;;13.82;3.95;;;10.00;66.80;;;;;;5062465;28;20067;-61
2022/03/01 16:19:49;;;;;;;8.57;3.45;;;10.00;66.70;;;;;;5059641;28;20462;-60
2022/03/01 16:22:15;;;;;;;12.38;4.25;;;10.00;66.60;;;;;;5061202;28;20038;-61
2022/03/01 16:24:42;;;;;;;8.07;4.20;;;10.10;67.00;;;;;;5063983;28;20017;-62
2022/03/01 16:27:09;;;;;;;16.65;4.43;;;10.00;67.20;;;;;;5061176;28;20040;-60
2022/03/01 16:29:35;;;;;;;8.30;4.05;;;10.00;67.40;;;;;;5060499;28;20021;-60
2022/03/01 16:32:01;;;;;;;10.65;3.83;;;9.90;67.40;;;;;;5058388;28;20035;-60
2022/03/01 16:34:30;;;;;;;7.18;3.90;;;10.00;67.40;;;;;;5056629;28;20028;-60
2022/03/01 16:36:57;;;;;;;8.48;4.05;;;10.00;67.50;;;;;;5066892;28;20025;-60
2022/03/01 16:39:23;;;;;;;8.32;4.35;;;10.00;67.70;;;;;;5063798;28;20025;-61
2022/03/01 16:41:49;;;;;;;6.88;3.95;;;10.00;67.70;;;;;;5058696;28;20493;-60
2022/03/01 16:44:14;;;;;;;9.18;3.40;;;10.00;67.80;;;;;;5062357;28;20021;-60
2022/03/01 16:46:40;;;;;;;12.05;4.65;;;10.00;68.30;;;;;;5039679;28;20025;-63
2022/03/01 16:49:06;;;;;;;9.82;3.80;;;10.00;68.20;;;;;;5055704;28;20032;-61
2022/03/01 16:51:34;;;;;;;5.95;3.63;;;9.90;68.20;;;;;;5061450;28;20099;-61
2022/03/01 16:54:01;;;;;;;7.05;3.47;;;10.00;68.40;;;;;;5059448;28;20037;-60
2022/03/01 16:56:26;;;;;;;8.38;3.40;;;9.90;68.40;;;;;;5060108;28;20027;-60
2022/03/01 16:58:52;;;;;;;9.45;4.55;;;9.90;68.70;;;;;;5061474;28;20029;-61
2022/03/01 17:01:18;;;;;;;11.00;4.47;;;9.90;68.60;;;;;;5064878;28;20029;-61
2022/03/01 17:03:44;;;;;;;12.30;6.15;;;9.90;68.90;;;;;;5061982;28;20482;-60
2022/03/01 17:06:10;;;;;;;24.80;6.10;;;9.90;68.90;;;;;;5065318;28;20046;-60
2022/03/01 17:08:36;;;;;;;19.98;7.07;;;9.90;69.10;;;;;;5068077;28;20053;-60
2022/03/01 17:11:03;;;;;;;14.57;6.15;;;9.90;69.00;;;;;;5070899;28;20131;-60
2022/03/01 17:13:29;;;;;;;11.57;4.85;;;9.80;69.20;;;;;;5057871;28;20028;-62
2022/03/01 17:15:55;;;;;;;9.73;4.20;;;9.80;69.30;;;;;;5056525;28;20040;-60
2022/03/01 17:18:20;;;;;;;11.30;4.55;;;9.80;69.40;;;;;;5056509;28;20428;-60
2022/03/01 17:20:48;;;;;;;12.52;4.75;;;9.80;69.40;;;;;;5055513;28;20132;-61
2022/03/01 17:23:15;;;;;;;12.80;4.32;;;9.80;68.10;;;;;;5059162;28;20032;-62